sensor_id;sensor_type;location;lat;lon;timestamp;temperature;humidity
37938;DHT22;23763;48.130;11.602;2024-01-30T00:02:21;3.80;99.90
37938;DHT22;23763;48.130;11.602;2024-01-30T00:04:47;3.70;99.90
37938;DHT22;23763;48.130;11.602;2024-01-30T00:07:12;3.60;99.90
37938;DHT22;23763;48.130;11.602;2024-01-30T00:09:38;3.50;99.90
37938;DHT22;23763;48.130;11.602;2024-01-30T00:12:06;3.60;99.90
37938;DHT22;23763;48.130;11.602;2024-01-30T00:14:31;3.50;99.90
37938;DHT22;23763;48.130;11.602;2024-01-30T00:16:57;3.50;99.90
37938;DHT22;23763;48.130;11.602;2024-01-30T00:19:23;3.50;99.90
37938;DHT22;23763;48.130;11.602;2024-01-30T00:21:48;3.50;99.90
37938;DHT22;23763;48.130;11.602;2024-01-30T00:24:14;3.60;99.90
37938;DHT22;23763;48.130;11.602;2024-01-30T00:26:40;3.50;99.90
37938;DHT22;23763;48.130;11.602;2024-01-30T00:29:05;3.40;99.90
37938;DHT22;23763;48.130;11.602;2024-01-30T00:31:31;3.40;99.90
37938;DHT22;23763;48.130;11.602;2024-01-30T00:33:57;3.40;99.90
37938;DHT22;23763;48.130;11.602;2024-01-30T00:36:23;3.30;99.90
37938;DHT22;23763;48.130;11.602;2024-01-30T00:38:48;3.30;99.90
37938;DHT22;23763;48.130;11.602;2024-01-30T00:41:14;3.40;99.90
37938;DHT22;23763;48.130;11.602;2024-01-30T00:43:43;3.50;99.90
37938;DHT22;23763;48.130;11.602;2024-01-30T00:46:08;3.40;99.90
37938;DHT22;23763;48.130;11.602;2024-01-30T00:48:34;3.40;99.90
37938;DHT22;23763;48.130;11.602;2024-01-30T00:51:00;3.30;99.90
37938;DHT22;23763;48.130;11.602;2024-01-30T00:53:26;3.30;99.90
37938;DHT22;23763;48.130;11.602;2024-01-30T00:55:52;3.20;99.90
37938;DHT22;23763;48.130;11.602;2024-01-30T00:58:17;3.10;99.90
37938;DHT22;23763;48.130;11.602;2024-01-30T01:00:44;3.10;99.90
37938;DHT22;23763;48.130;11.602;2024-01-30T01:03:10;3.00;99.90
37938;DHT22;23763;48.130;11.602;2024-01-30T01:05:36;3.00;99.90
37938;DHT22;23763;48.130;11.602;2024-01-30T01:08:02;3.00;99.90
37938;DHT22;23763;48.130;11.602;2024-01-30T01:10:27;3.00;99.90
37938;DHT22;23763;48.130;11.602;2024-01-30T01:12:54;3.00;99.90
37938;DHT22;23763;48.130;11.602;2024-01-30T01:15:19;3.10;99.90
37938;DHT22;23763;48.130;11.602;2024-01-30T01:17:45;3.00;99.90
37938;DHT22;23763;48.130;11.602;2024-01-30T01:20:11;3.00;99.90
37938;DHT22;23763;48.130;11.602;2024-01-30T01:22:37;3.00;99.90
37938;DHT22;23763;48.130;11.602;2024-01-30T01:25:04;2.90;99.90
37938;DHT22;23763;48.130;11.602;2024-01-30T01:27:32;3.00;99.90
37938;DHT22;23763;48.130;11.602;2024-01-30T01:29:59;3.10;99.90
37938;DHT22;23763;48.130;11.602;2024-01-30T01:32:25;3.30;99.90
37938;DHT22;23763;48.130;11.602;2024-01-30T01:34:51;3.20;99.90
37938;DHT22;23763;48.130;11.602;2024-01-30T01:37:17;3.10;99.90
37938;DHT22;23763;48.130;11.602;2024-01-30T01:39:42;3.10;99.90
37938;DHT22;23763;48.130;11.602;2024-01-30T01:42:08;3.10;99.90
37938;DHT22;23763;48.130;11.602;2024-01-30T01:44:33;3.10;99.90
37938;DHT22;23763;48.130;11.602;2024-01-30T01:46:59;3.10;99.90
37938;DHT22;23763;48.130;11.602;2024-01-30T01:49:25;3.10;99.90
37938;DHT22;23763;48.130;11.602;2024-01-30T01:51:54;3.10;99.90
37938;DHT22;23763;48.130;11.602;2024-01-30T01:54:22;3.00;99.90
37938;DHT22;23763;48.130;11.602;2024-01-30T01:56:49;3.10;99.90
37938;DHT22;23763;48.130;11.602;2024-01-30T01:59:16;3.10;99.90
37938;DHT22;23763;48.130;11.602;2024-01-30T02:01:43;3.10;99.90
37938;DHT22;23763;48.130;11.602;2024-01-30T02:04:08;3.00;99.90
37938;DHT22;23763;48.130;11.602;2024-01-30T02:06:34;3.00;99.90
37938;DHT22;23763;48.130;11.602;2024-01-30T02:09:00;3.00;99.90
37938;DHT22;23763;48.130;11.602;2024-01-30T02:11:26;2.90;99.90
37938;DHT22;23763;48.130;11.602;2024-01-30T02:13:53;2.90;99.90
37938;DHT22;23763;48.130;11.602;2024-01-30T02:16:18;3.00;99.90
37938;DHT22;23763;48.130;11.602;2024-01-30T02:18:44;3.00;99.90
37938;DHT22;23763;48.130;11.602;2024-01-30T02:21:14;3.00;99.90
37938;DHT22;23763;48.130;11.602;2024-01-30T02:23:41;3.00;99.90
37938;DHT22;23763;48.130;11.602;2024-01-30T02:26:07;3.00;99.90
37938;DHT22;23763;48.130;11.602;2024-01-30T02:28:33;3.00;99.90
37938;DHT22;23763;48.130;11.602;2024-01-30T02:30:58;2.90;99.90
37938;DHT22;23763;48.130;11.602;2024-01-30T02:33:24;3.00;99.90
37938;DHT22;23763;48.130;11.602;2024-01-30T02:35:50;3.10;99.90
37938;DHT22;23763;48.130;11.602;2024-01-30T02:38:16;3.00;99.90
37938;DHT22;23763;48.130;11.602;2024-01-30T02:40:42;3.00;99.90
37938;DHT22;23763;48.130;11.602;2024-01-30T02:43:07;2.90;99.90
37938;DHT22;23763;48.130;11.602;2024-01-30T02:45:33;2.90;99.90
37938;DHT22;23763;48.130;11.602;2024-01-30T02:47:59;3.00;99.90
37938;DHT22;23763;48.130;11.602;2024-01-30T02:50:24;2.90;99.90
37938;DHT22;23763;48.130;11.602;2024-01-30T02:52:50;2.90;99.90
37938;DHT22;23763;48.130;11.602;2024-01-30T02:55:16;2.90;99.90
37938;DHT22;23763;48.130;11.602;2024-01-30T02:57:45;2.90;99.90
37938;DHT22;23763;48.130;11.602;2024-01-30T03:00:11;2.90;99.90
37938;DHT22;23763;48.130;11.602;2024-01-30T03:02:36;3.00;99.90
37938;DHT22;23763;48.130;11.602;2024-01-30T03:05:03;2.90;99.90
37938;DHT22;23763;48.130;11.602;2024-01-30T03:07:31;2.80;99.90
37938;DHT22;23763;48.130;11.602;2024-01-30T03:09:57;2.70;99.90
37938;DHT22;23763;48.130;11.602;2024-01-30T03:12:22;2.70;99.90
37938;DHT22;23763;48.130;11.602;2024-01-30T03:14:48;2.70;99.90
37938;DHT22;23763;48.130;11.602;2024-01-30T03:17:14;2.70;99.90
37938;DHT22;23763;48.130;11.602;2024-01-30T03:19:40;2.80;99.90
37938;DHT22;23763;48.130;11.602;2024-01-30T03:22:06;2.90;99.90
37938;DHT22;23763;48.130;11.602;2024-01-30T03:24:32;3.00;99.90
37938;DHT22;23763;48.130;11.602;2024-01-30T03:26:57;2.90;99.90
37938;DHT22;23763;48.130;11.602;2024-01-30T03:29:23;2.80;99.90
37938;DHT22;23763;48.130;11.602;2024-01-30T03:31:48;2.80;99.90
37938;DHT22;23763;48.130;11.602;2024-01-30T03:34:14;2.80;99.90
37938;DHT22;23763;48.130;11.602;2024-01-30T03:36:40;2.80;99.90
37938;DHT22;23763;48.130;11.602;2024-01-30T03:39:05;2.80;99.90
37938;DHT22;23763;48.130;11.602;2024-01-30T03:41:31;2.90;99.90
37938;DHT22;23763;48.130;11.602;2024-01-30T03:43:57;2.90;99.90
37938;DHT22;23763;48.130;11.602;2024-01-30T03:46:22;2.80;99.90
37938;DHT22;23763;48.130;11.602;2024-01-30T03:48:48;2.90;99.90
37938;DHT22;23763;48.130;11.602;2024-01-30T03:51:14;2.90;99.90
37938;DHT22;23763;48.130;11.602;2024-01-30T03:53:44;2.90;99.90
37938;DHT22;23763;48.130;11.602;2024-01-30T03:56:11;2.90;99.90
37938;DHT22;23763;48.130;11.602;2024-01-30T03:58:38;2.90;99.90
37938;DHT22;23763;48.130;11.602;2024-01-30T04:01:04;3.00;99.90
37938;DHT22;23763;48.130;11.602;2024-01-30T04:03:29;3.00;99.90
37938;DHT22;23763;48.130;11.602;2024-01-30T04:05:55;3.00;99.90
37938;DHT22;23763;48.130;11.602;2024-01-30T04:08:20;3.00;99.90
37938;DHT22;23763;48.130;11.602;2024-01-30T04:10:47;3.00;99.90
37938;DHT22;23763;48.130;11.602;2024-01-30T04:13:12;3.00;99.90
37938;DHT22;23763;48.130;11.602;2024-01-30T04:15:38;3.00;99.90
37938;DHT22;23763;48.130;11.602;2024-01-30T04:18:04;3.00;99.90
37938;DHT22;23763;48.130;11.602;2024-01-30T04:20:30;3.00;99.90
37938;DHT22;23763;48.130;11.602;2024-01-30T04:22:56;2.90;99.90
37938;DHT22;23763;48.130;11.602;2024-01-30T04:25:21;2.80;99.90
37938;DHT22;23763;48.130;11.602;2024-01-30T04:27:47;2.90;99.90
37938;DHT22;23763;48.130;11.602;2024-01-30T04:30:13;2.90;99.90
37938;DHT22;23763;48.130;11.602;2024-01-30T04:32:39;2.90;99.90
37938;DHT22;23763;48.130;11.602;2024-01-30T04:35:04;2.90;99.90
37938;DHT22;23763;48.130;11.602;2024-01-30T04:37:30;2.90;99.90
37938;DHT22;23763;48.130;11.602;2024-01-30T04:39:56;2.90;99.90
37938;DHT22;23763;48.130;11.602;2024-01-30T04:42:22;2.80;99.90
37938;DHT22;23763;48.130;11.602;2024-01-30T04:44:47;2.90;99.90
37938;DHT22;23763;48.130;11.602;2024-01-30T04:47:13;2.90;99.90
37938;DHT22;23763;48.130;11.602;2024-01-30T04:49:39;2.80;99.90
37938;DHT22;23763;48.130;11.602;2024-01-30T04:52:08;2.80;99.90
37938;DHT22;23763;48.130;11.602;2024-01-30T04:54:34;2.90;99.90
37938;DHT22;23763;48.130;11.602;2024-01-30T04:57:01;2.80;99.90
37938;DHT22;23763;48.130;11.602;2024-01-30T04:59:27;2.90;99.90
37938;DHT22;23763;48.130;11.602;2024-01-30T05:01:53;2.80;99.90
37938;DHT22;23763;48.130;11.602;2024-01-30T05:04:18;2.90;99.90
37938;DHT22;23763;48.130;11.602;2024-01-30T05:06:44;2.80;99.90
37938;DHT22;23763;48.130;11.602;2024-01-30T05:09:10;2.80;99.90
37938;DHT22;23763;48.130;11.602;2024-01-30T05:11:40;2.90;99.90
37938;DHT22;23763;48.130;11.602;2024-01-30T05:14:06;2.80;99.90
37938;DHT22;23763;48.130;11.602;2024-01-30T05:16:32;2.90;99.90
37938;DHT22;23763;48.130;11.602;2024-01-30T05:18:58;2.90;99.90
37938;DHT22;23763;48.130;11.602;2024-01-30T05:21:24;2.90;99.90
37938;DHT22;23763;48.130;11.602;2024-01-30T05:23:50;2.90;99.90
37938;DHT22;23763;48.130;11.602;2024-01-30T05:26:15;2.90;99.90
37938;DHT22;23763;48.130;11.602;2024-01-30T05:28:41;2.80;99.90
37938;DHT22;23763;48.130;11.602;2024-01-30T05:31:07;2.90;99.90
37938;DHT22;23763;48.130;11.602;2024-01-30T05:33:33;2.70;99.90
37938;DHT22;23763;48.130;11.602;2024-01-30T05:35:59;3.00;99.90
37938;DHT22;23763;48.130;11.602;2024-01-30T05:38:24;2.80;99.90
37938;DHT22;23763;48.130;11.602;2024-01-30T05:40:50;2.90;99.90
37938;DHT22;23763;48.130;11.602;2024-01-30T05:43:16;3.10;99.90
37938;DHT22;23763;48.130;11.602;2024-01-30T05:45:41;2.80;99.90
37938;DHT22;23763;48.130;11.602;2024-01-30T05:48:07;2.80;99.90
37938;DHT22;23763;48.130;11.602;2024-01-30T05:50:33;2.90;99.90
37938;DHT22;23763;48.130;11.602;2024-01-30T05:52:58;2.80;99.90
37938;DHT22;23763;48.130;11.602;2024-01-30T05:55:24;3.00;99.90
37938;DHT22;23763;48.130;11.602;2024-01-30T05:57:49;2.80;99.90
37938;DHT22;23763;48.130;11.602;2024-01-30T06:00:16;2.80;99.90
37938;DHT22;23763;48.130;11.602;2024-01-30T06:02:42;2.80;99.90
37938;DHT22;23763;48.130;11.602;2024-01-30T06:05:08;2.70;99.90
37938;DHT22;23763;48.130;11.602;2024-01-30T06:07:33;2.80;99.90
37938;DHT22;23763;48.130;11.602;2024-01-30T06:09:59;2.80;99.90
37938;DHT22;23763;48.130;11.602;2024-01-30T06:12:27;2.80;99.90
37938;DHT22;23763;48.130;11.602;2024-01-30T06:14:53;2.70;99.90
37938;DHT22;23763;48.130;11.602;2024-01-30T06:17:22;2.90;99.90
37938;DHT22;23763;48.130;11.602;2024-01-30T06:19:48;2.80;99.90
37938;DHT22;23763;48.130;11.602;2024-01-30T06:22:15;2.70;99.90
37938;DHT22;23763;48.130;11.602;2024-01-30T06:24:41;2.90;99.90
37938;DHT22;23763;48.130;11.602;2024-01-30T06:27:07;2.70;99.90
37938;DHT22;23763;48.130;11.602;2024-01-30T06:29:33;2.70;99.90
37938;DHT22;23763;48.130;11.602;2024-01-30T06:31:59;2.80;99.90
37938;DHT22;23763;48.130;11.602;2024-01-30T06:34:24;2.80;99.90
37938;DHT22;23763;48.130;11.602;2024-01-30T06:36:51;3.00;99.90
37938;DHT22;23763;48.130;11.602;2024-01-30T06:39:17;2.90;99.90
37938;DHT22;23763;48.130;11.602;2024-01-30T06:41:43;3.00;99.90
37938;DHT22;23763;48.130;11.602;2024-01-30T06:44:09;3.00;99.90
37938;DHT22;23763;48.130;11.602;2024-01-30T06:46:35;3.10;99.90
37938;DHT22;23763;48.130;11.602;2024-01-30T06:49:01;3.30;99.90
37938;DHT22;23763;48.130;11.602;2024-01-30T06:51:26;3.00;99.90
37938;DHT22;23763;48.130;11.602;2024-01-30T06:53:52;3.30;99.90
37938;DHT22;23763;48.130;11.602;2024-01-30T06:56:18;3.10;99.90
37938;DHT22;23763;48.130;11.602;2024-01-30T06:58:52;3.10;99.90
37938;DHT22;23763;48.130;11.602;2024-01-30T07:01:18;3.20;99.90
37938;DHT22;23763;48.130;11.602;2024-01-30T07:03:44;3.10;99.90
37938;DHT22;23763;48.130;11.602;2024-01-30T07:06:10;3.20;99.90
37938;DHT22;23763;48.130;11.602;2024-01-30T07:08:39;3.30;99.90
37938;DHT22;23763;48.130;11.602;2024-01-30T07:11:21;3.10;99.90
37938;DHT22;23763;48.130;11.602;2024-01-30T07:13:48;3.10;99.90
37938;DHT22;23763;48.130;11.602;2024-01-30T07:16:14;3.20;99.90
37938;DHT22;23763;48.130;11.602;2024-01-30T07:18:40;3.20;99.90
37938;DHT22;23763;48.130;11.602;2024-01-30T07:21:06;3.30;99.90
37938;DHT22;23763;48.130;11.602;2024-01-30T07:23:31;3.20;99.90
37938;DHT22;23763;48.130;11.602;2024-01-30T07:25:59;3.30;99.90
37938;DHT22;23763;48.130;11.602;2024-01-30T07:28:25;3.40;99.90
37938;DHT22;23763;48.130;11.602;2024-01-30T07:30:50;3.40;99.90
37938;DHT22;23763;48.130;11.602;2024-01-30T07:33:16;3.40;99.90
37938;DHT22;23763;48.130;11.602;2024-01-30T07:35:42;3.70;99.90
37938;DHT22;23763;48.130;11.602;2024-01-30T07:38:07;3.60;99.90
37938;DHT22;23763;48.130;11.602;2024-01-30T07:40:33;3.80;99.90
37938;DHT22;23763;48.130;11.602;2024-01-30T07:42:59;3.70;99.90
37938;DHT22;23763;48.130;11.602;2024-01-30T07:45:24;3.70;99.90
37938;DHT22;23763;48.130;11.602;2024-01-30T07:47:51;3.80;99.90
37938;DHT22;23763;48.130;11.602;2024-01-30T07:50:17;4.00;99.90
37938;DHT22;23763;48.130;11.602;2024-01-30T07:52:43;4.10;99.90
37938;DHT22;23763;48.130;11.602;2024-01-30T07:55:09;4.10;99.90
37938;DHT22;23763;48.130;11.602;2024-01-30T07:57:35;3.90;99.90
37938;DHT22;23763;48.130;11.602;2024-01-30T08:00:01;4.00;99.90
37938;DHT22;23763;48.130;11.602;2024-01-30T08:02:28;4.00;99.90
37938;DHT22;23763;48.130;11.602;2024-01-30T08:04:53;4.20;99.90
37938;DHT22;23763;48.130;11.602;2024-01-30T08:07:19;4.20;99.90
37938;DHT22;23763;48.130;11.602;2024-01-30T08:09:47;4.20;99.90
37938;DHT22;23763;48.130;11.602;2024-01-30T08:12:13;4.30;99.90
37938;DHT22;23763;48.130;11.602;2024-01-30T08:14:39;4.30;99.90
37938;DHT22;23763;48.130;11.602;2024-01-30T08:17:06;4.40;99.90
37938;DHT22;23763;48.130;11.602;2024-01-30T08:19:33;4.40;99.90
37938;DHT22;23763;48.130;11.602;2024-01-30T08:21:58;4.50;99.90
37938;DHT22;23763;48.130;11.602;2024-01-30T08:24:24;4.50;99.90
37938;DHT22;23763;48.130;11.602;2024-01-30T08:26:49;4.60;99.90
37938;DHT22;23763;48.130;11.602;2024-01-30T08:29:15;4.60;99.90
37938;DHT22;23763;48.130;11.602;2024-01-30T08:31:41;4.70;99.90
37938;DHT22;23763;48.130;11.602;2024-01-30T08:34:06;4.70;99.90
37938;DHT22;23763;48.130;11.602;2024-01-30T08:36:32;4.80;99.90
37938;DHT22;23763;48.130;11.602;2024-01-30T08:38:57;4.90;99.90
37938;DHT22;23763;48.130;11.602;2024-01-30T08:41:24;5.00;99.90
37938;DHT22;23763;48.130;11.602;2024-01-30T08:43:49;5.00;99.90
37938;DHT22;23763;48.130;11.602;2024-01-30T08:46:18;5.10;99.90
37938;DHT22;23763;48.130;11.602;2024-01-30T08:48:43;5.20;99.90
37938;DHT22;23763;48.130;11.602;2024-01-30T08:51:09;5.20;99.90
37938;DHT22;23763;48.130;11.602;2024-01-30T08:53:36;5.30;99.90
37938;DHT22;23763;48.130;11.602;2024-01-30T08:56:02;5.40;99.90
37938;DHT22;23763;48.130;11.602;2024-01-30T08:58:28;5.50;99.90
37938;DHT22;23763;48.130;11.602;2024-01-30T09:00:54;5.50;99.90
37938;DHT22;23763;48.130;11.602;2024-01-30T09:03:19;5.60;99.90
37938;DHT22;23763;48.130;11.602;2024-01-30T09:05:45;5.70;99.90
37938;DHT22;23763;48.130;11.602;2024-01-30T09:08:11;5.80;99.90
37938;DHT22;23763;48.130;11.602;2024-01-30T09:10:36;5.80;99.90
37938;DHT22;23763;48.130;11.602;2024-01-30T09:13:02;5.90;99.90
37938;DHT22;23763;48.130;11.602;2024-01-30T09:15:28;6.00;99.90
37938;DHT22;23763;48.130;11.602;2024-01-30T09:17:54;6.10;99.90
37938;DHT22;23763;48.130;11.602;2024-01-30T09:20:19;6.20;99.90
37938;DHT22;23763;48.130;11.602;2024-01-30T09:22:47;6.20;99.90
37938;DHT22;23763;48.130;11.602;2024-01-30T09:25:13;6.30;99.90
37938;DHT22;23763;48.130;11.602;2024-01-30T09:27:39;6.40;99.90
37938;DHT22;23763;48.130;11.602;2024-01-30T09:30:06;6.50;99.90
37938;DHT22;23763;48.130;11.602;2024-01-30T09:32:31;6.60;99.90
37938;DHT22;23763;48.130;11.602;2024-01-30T09:34:57;6.70;99.90
37938;DHT22;23763;48.130;11.602;2024-01-30T09:37:23;6.70;99.90
37938;DHT22;23763;48.130;11.602;2024-01-30T09:39:48;6.80;99.90
37938;DHT22;23763;48.130;11.602;2024-01-30T09:42:28;6.90;99.90
37938;DHT22;23763;48.130;11.602;2024-01-30T09:44:55;7.00;99.90
37938;DHT22;23763;48.130;11.602;2024-01-30T09:47:21;7.10;99.90
37938;DHT22;23763;48.130;11.602;2024-01-30T09:49:47;7.20;99.90
37938;DHT22;23763;48.130;11.602;2024-01-30T09:52:14;7.30;99.90
37938;DHT22;23763;48.130;11.602;2024-01-30T09:54:41;7.40;99.90
37938;DHT22;23763;48.130;11.602;2024-01-30T09:57:07;7.50;99.90
37938;DHT22;23763;48.130;11.602;2024-01-30T09:59:34;7.70;99.90
37938;DHT22;23763;48.130;11.602;2024-01-30T10:02:00;7.80;99.90
37938;DHT22;23763;48.130;11.602;2024-01-30T10:04:26;7.80;99.90
37938;DHT22;23763;48.130;11.602;2024-01-30T10:06:51;7.80;99.90
37938;DHT22;23763;48.130;11.602;2024-01-30T10:09:17;7.90;99.90
37938;DHT22;23763;48.130;11.602;2024-01-30T10:11:43;8.00;99.90
37938;DHT22;23763;48.130;11.602;2024-01-30T10:14:09;8.00;99.90
37938;DHT22;23763;48.130;11.602;2024-01-30T10:16:35;8.10;99.90
37938;DHT22;23763;48.130;11.602;2024-01-30T10:19:00;8.10;99.90
37938;DHT22;23763;48.130;11.602;2024-01-30T10:21:26;8.20;99.90
37938;DHT22;23763;48.130;11.602;2024-01-30T10:23:52;8.20;99.90
37938;DHT22;23763;48.130;11.602;2024-01-30T10:26:18;8.30;99.90
37938;DHT22;23763;48.130;11.602;2024-01-30T10:28:44;8.40;99.90
37938;DHT22;23763;48.130;11.602;2024-01-30T10:31:09;8.50;99.90
37938;DHT22;23763;48.130;11.602;2024-01-30T10:33:35;8.60;99.90
37938;DHT22;23763;48.130;11.602;2024-01-30T10:36:04;8.70;99.90
37938;DHT22;23763;48.130;11.602;2024-01-30T10:38:32;8.80;99.90
37938;DHT22;23763;48.130;11.602;2024-01-30T10:41:00;8.90;99.90
37938;DHT22;23763;48.130;11.602;2024-01-30T10:43:35;8.90;99.90
37938;DHT22;23763;48.130;11.602;2024-01-30T10:46:15;8.90;99.90
37938;DHT22;23763;48.130;11.602;2024-01-30T10:48:44;8.90;99.90
37938;DHT22;23763;48.130;11.602;2024-01-30T10:51:13;8.80;99.90
37938;DHT22;23763;48.130;11.602;2024-01-30T10:53:39;8.90;99.90
37938;DHT22;23763;48.130;11.602;2024-01-30T10:56:06;9.00;99.90
37938;DHT22;23763;48.130;11.602;2024-01-30T10:58:33;9.00;99.90
37938;DHT22;23763;48.130;11.602;2024-01-30T11:00:59;9.10;99.90
37938;DHT22;23763;48.130;11.602;2024-01-30T11:03:25;9.10;99.90
37938;DHT22;23763;48.130;11.602;2024-01-30T11:05:51;9.30;99.90
37938;DHT22;23763;48.130;11.602;2024-01-30T11:08:26;9.40;99.90
37938;DHT22;23763;48.130;11.602;2024-01-30T11:10:57;9.60;99.90
37938;DHT22;23763;48.130;11.602;2024-01-30T11:13:27;9.70;99.90
37938;DHT22;23763;48.130;11.602;2024-01-30T11:15:53;9.70;99.90
37938;DHT22;23763;48.130;11.602;2024-01-30T11:18:26;9.80;99.90
37938;DHT22;23763;48.130;11.602;2024-01-30T11:20:52;9.90;99.90
37938;DHT22;23763;48.130;11.602;2024-01-30T11:23:17;9.90;99.90
37938;DHT22;23763;48.130;11.602;2024-01-30T11:25:46;9.90;99.90
37938;DHT22;23763;48.130;11.602;2024-01-30T11:28:14;10.00;99.90
37938;DHT22;23763;48.130;11.602;2024-01-30T11:30:44;10.00;99.90
37938;DHT22;23763;48.130;11.602;2024-01-30T11:33:11;10.10;99.90
37938;DHT22;23763;48.130;11.602;2024-01-30T11:35:42;10.20;99.90
37938;DHT22;23763;48.130;11.602;2024-01-30T11:38:09;10.30;99.90
37938;DHT22;23763;48.130;11.602;2024-01-30T11:40:36;10.40;99.90
37938;DHT22;23763;48.130;11.602;2024-01-30T11:43:04;10.50;99.90
37938;DHT22;23763;48.130;11.602;2024-01-30T11:45:31;10.70;99.90
37938;DHT22;23763;48.130;11.602;2024-01-30T11:47:57;10.80;99.90
37938;DHT22;23763;48.130;11.602;2024-01-30T11:50:25;10.90;99.90
37938;DHT22;23763;48.130;11.602;2024-01-30T11:52:51;10.90;99.90
37938;DHT22;23763;48.130;11.602;2024-01-30T11:55:17;11.00;99.90
37938;DHT22;23763;48.130;11.602;2024-01-30T11:57:43;11.00;99.90
37938;DHT22;23763;48.130;11.602;2024-01-30T12:00:15;11.00;99.90
37938;DHT22;23763;48.130;11.602;2024-01-30T12:02:42;10.90;99.90
37938;DHT22;23763;48.130;11.602;2024-01-30T12:05:08;10.90;99.90
37938;DHT22;23763;48.130;11.602;2024-01-30T12:07:37;11.00;99.90
37938;DHT22;23763;48.130;11.602;2024-01-30T12:10:03;11.00;99.90
37938;DHT22;23763;48.130;11.602;2024-01-30T12:12:31;11.20;99.90
37938;DHT22;23763;48.130;11.602;2024-01-30T12:14:57;11.30;99.90
37938;DHT22;23763;48.130;11.602;2024-01-30T12:17:32;11.30;99.90
37938;DHT22;23763;48.130;11.602;2024-01-30T12:22:37;11.70;99.90
37938;DHT22;23763;48.130;11.602;2024-01-30T12:25:12;11.80;99.90
37938;DHT22;23763;48.130;11.602;2024-01-30T12:27:39;11.80;99.90
37938;DHT22;23763;48.130;11.602;2024-01-30T12:30:09;11.80;99.90
37938;DHT22;23763;48.130;11.602;2024-01-30T12:32:45;11.80;99.90
37938;DHT22;23763;48.130;11.602;2024-01-30T12:35:19;11.90;99.90
37938;DHT22;23763;48.130;11.602;2024-01-30T12:37:45;12.00;99.90
37938;DHT22;23763;48.130;11.602;2024-01-30T12:40:12;12.20;99.90
37938;DHT22;23763;48.130;11.602;2024-01-30T12:42:41;12.20;99.90
37938;DHT22;23763;48.130;11.602;2024-01-30T12:45:11;12.10;99.90
37938;DHT22;23763;48.130;11.602;2024-01-30T12:47:38;12.10;99.90
37938;DHT22;23763;48.130;11.602;2024-01-30T12:50:05;12.20;99.90
37938;DHT22;23763;48.130;11.602;2024-01-30T12:52:31;12.20;99.90
37938;DHT22;23763;48.130;11.602;2024-01-30T12:54:57;12.20;99.90
37938;DHT22;23763;48.130;11.602;2024-01-30T12:57:23;12.20;99.90
37938;DHT22;23763;48.130;11.602;2024-01-30T12:59:49;12.30;99.90
37938;DHT22;23763;48.130;11.602;2024-01-30T13:02:15;12.40;99.90
37938;DHT22;23763;48.130;11.602;2024-01-30T13:04:42;12.50;99.90
37938;DHT22;23763;48.130;11.602;2024-01-30T13:07:07;12.70;99.90
37938;DHT22;23763;48.130;11.602;2024-01-30T13:09:33;12.80;99.90
37938;DHT22;23763;48.130;11.602;2024-01-30T13:11:59;12.80;99.90
37938;DHT22;23763;48.130;11.602;2024-01-30T13:14:25;12.90;99.90
37938;DHT22;23763;48.130;11.602;2024-01-30T13:16:51;12.90;99.90
37938;DHT22;23763;48.130;11.602;2024-01-30T13:19:17;13.00;99.90
37938;DHT22;23763;48.130;11.602;2024-01-30T13:21:43;13.00;99.90
37938;DHT22;23763;48.130;11.602;2024-01-30T13:24:09;13.10;99.90
37938;DHT22;23763;48.130;11.602;2024-01-30T13:26:35;13.10;99.90
37938;DHT22;23763;48.130;11.602;2024-01-30T13:29:01;13.10;99.90
37938;DHT22;23763;48.130;11.602;2024-01-30T13:31:27;13.10;99.90
37938;DHT22;23763;48.130;11.602;2024-01-30T13:33:54;13.20;99.90
37938;DHT22;23763;48.130;11.602;2024-01-30T13:36:19;13.20;99.90
37938;DHT22;23763;48.130;11.602;2024-01-30T13:38:46;13.10;99.90
37938;DHT22;23763;48.130;11.602;2024-01-30T13:41:12;13.00;99.90
37938;DHT22;23763;48.130;11.602;2024-01-30T13:43:37;12.90;99.90
37938;DHT22;23763;48.130;11.602;2024-01-30T13:46:03;12.90;99.90
37938;DHT22;23763;48.130;11.602;2024-01-30T13:48:30;12.80;99.90
37938;DHT22;23763;48.130;11.602;2024-01-30T13:50:56;12.80;99.90
37938;DHT22;23763;48.130;11.602;2024-01-30T13:53:22;12.90;99.90
37938;DHT22;23763;48.130;11.602;2024-01-30T13:55:48;12.90;99.90
37938;DHT22;23763;48.130;11.602;2024-01-30T13:58:14;12.90;99.90
37938;DHT22;23763;48.130;11.602;2024-01-30T14:00:39;12.90;99.90
37938;DHT22;23763;48.130;11.602;2024-01-30T14:03:05;12.80;99.90
37938;DHT22;23763;48.130;11.602;2024-01-30T14:05:31;12.80;99.90
37938;DHT22;23763;48.130;11.602;2024-01-30T14:07:57;12.60;99.90
37938;DHT22;23763;48.130;11.602;2024-01-30T14:10:23;12.50;99.90
37938;DHT22;23763;48.130;11.602;2024-01-30T14:12:49;12.40;99.90
37938;DHT22;23763;48.130;11.602;2024-01-30T14:15:15;12.20;99.90
37938;DHT22;23763;48.130;11.602;2024-01-30T14:17:43;12.10;99.90
37938;DHT22;23763;48.130;11.602;2024-01-30T14:20:09;12.00;99.90
37938;DHT22;23763;48.130;11.602;2024-01-30T14:22:36;11.90;99.90
37938;DHT22;23763;48.130;11.602;2024-01-30T14:25:02;11.90;99.90
37938;DHT22;23763;48.130;11.602;2024-01-30T14:27:31;11.80;99.90
37938;DHT22;23763;48.130;11.602;2024-01-30T14:29:57;11.70;99.90
37938;DHT22;23763;48.130;11.602;2024-01-30T14:32:24;11.70;99.90
37938;DHT22;23763;48.130;11.602;2024-01-30T14:34:51;11.70;99.90
37938;DHT22;23763;48.130;11.602;2024-01-30T14:37:18;11.70;99.90
37938;DHT22;23763;48.130;11.602;2024-01-30T14:39:44;11.70;99.90
37938;DHT22;23763;48.130;11.602;2024-01-30T14:42:10;11.70;99.90
37938;DHT22;23763;48.130;11.602;2024-01-30T14:44:36;11.70;99.90
37938;DHT22;23763;48.130;11.602;2024-01-30T14:47:02;11.60;99.90
37938;DHT22;23763;48.130;11.602;2024-01-30T14:49:28;11.50;99.90
37938;DHT22;23763;48.130;11.602;2024-01-30T14:51:54;11.40;99.90
37938;DHT22;23763;48.130;11.602;2024-01-30T14:54:20;11.40;99.90
37938;DHT22;23763;48.130;11.602;2024-01-30T14:56:46;11.40;99.90
37938;DHT22;23763;48.130;11.602;2024-01-30T14:59:12;11.30;99.90
37938;DHT22;23763;48.130;11.602;2024-01-30T15:01:38;11.40;99.90
37938;DHT22;23763;48.130;11.602;2024-01-30T15:04:03;11.30;99.90
37938;DHT22;23763;48.130;11.602;2024-01-30T15:06:29;11.30;99.90
37938;DHT22;23763;48.130;11.602;2024-01-30T15:08:55;11.50;99.90
37938;DHT22;23763;48.130;11.602;2024-01-30T15:11:21;11.50;99.90
37938;DHT22;23763;48.130;11.602;2024-01-30T15:13:47;11.50;99.90
37938;DHT22;23763;48.130;11.602;2024-01-30T15:16:12;11.50;99.90
37938;DHT22;23763;48.130;11.602;2024-01-30T15:18:39;11.60;99.90
37938;DHT22;23763;48.130;11.602;2024-01-30T15:21:04;11.50;99.90
37938;DHT22;23763;48.130;11.602;2024-01-30T15:23:30;11.50;99.90
37938;DHT22;23763;48.130;11.602;2024-01-30T15:25:56;11.60;99.90